Time;durP1;ratioP1;P1;durP2;ratioP2;P2;SDS_P1;SDS_P2;PMS_P1;PMS_P2;Temp;Humidity;BMP_temperature;BMP_pressure;BME280_temperature;BME280_humidity;BME280_pressure;Samples;Min_cycle;Max_cycle;Signal;HPM_P1;HPM_P2
2023/07/11 00:01:57;;;;;;;7.65;5.50;;;;;;;;;;4858854;29;20041;-83
2023/07/11 00:04:42;;;;;;;14.52;6.10;;;;;;;;;;4859295;29;20049;-82
2023/07/11 00:07:28;;;;;;;8.63;5.65;;;;;;;;;;4862969;29;20057;-82
2023/07/11 00:10:16;;;;;;;7.40;5.25;;;;;;;;;;4871369;29;20756;-82
2023/07/11 00:13:02;;;;;;;7.72;5.65;;;;;;;;;;4865501;29;20045;-83
2023/07/11 00:16:00;;;;;;;9.15;5.82;;;;;;;;;;4863891;29;20499;-83
2023/07/11 00:18:46;;;;;;;8.50;5.88;;;;;;;;;;4862869;29;20042;-83
2023/07/11 00:21:32;;;;;;;8.27;5.40;;;;;;;;;;4862414;29;20042;-83
2023/07/11 00:24:18;;;;;;;6.28;5.18;;;;;;;;;;4862552;29;20045;-83
2023/07/11 00:27:03;;;;;;;7.47;5.80;;;;;;;;;;4862106;29;20057;-83
2023/07/11 00:29:49;;;;;;;8.73;5.63;;;;;;;;;;4862675;29;20065;-83
2023/07/11 00:32:35;;;;;;;8.88;6.45;;;;;;;;;;4856203;29;20065;-84
2023/07/11 00:35:21;;;;;;;10.68;5.70;;;;;;;;;;4880060;29;20057;-87
2023/07/11 00:38:06;;;;;;;10.88;6.10;;;;;;;;;;4867292;29;20050;-87
2023/07/11 00:40:52;;;;;;;8.02;5.68;;;;;;;;;;4861910;29;20053;-86
2023/07/11 00:43:38;;;;;;;8.20;5.40;;;;;;;;;;4861366;29;20042;-89
2023/07/11 00:46:24;;;;;;;8.20;5.50;;;;;;;;;;4862287;29;20053;-89
2023/07/11 00:49:12;;;;;;;7.97;5.72;;;;;;;;;;4867078;29;20049;-89
2023/07/11 00:52:01;;;;;;;7.40;5.55;;;;;;;;;;4853908;29;20049;-89
2023/07/11 00:54:50;;;;;;;7.00;5.40;;;;;;;;;;4866959;29;20503;-90
2023/07/11 00:57:40;;;;;;;7.35;5.30;;;;;;;;;;4860808;29;20038;-89
2023/07/11 01:00:26;;;;;;;8.35;6.07;;;;;;;;;;4875952;29;20045;-86
2023/07/11 01:03:11;;;;;;;6.88;5.50;;;;;;;;;;4869083;29;20045;-85
2023/07/11 01:05:58;;;;;;;9.32;5.45;;;;;;;;;;4861953;29;20050;-88
2023/07/11 01:08:46;;;;;;;9.00;5.35;;;;;;;;;;4853919;29;20057;-86
2023/07/11 01:11:49;;;;;;;9.95;6.10;;;;;;;;;;4866472;29;20499;-87
2023/07/11 01:14:35;;;;;;;11.80;6.10;;;;;;;;;;4860399;29;20049;-88
2023/07/11 01:17:29;;;;;;;10.32;6.10;;;;;;;;;;4861002;29;20053;-86
2023/07/11 01:20:15;;;;;;;8.18;6.53;;;;;;;;;;4866346;29;20061;-86
2023/07/11 01:23:01;;;;;;;9.80;6.20;;;;;;;;;;4853585;29;20053;-86
2023/07/11 01:25:46;;;;;;;7.55;5.25;;;;;;;;;;4860247;29;20491;-86
2023/07/11 01:28:31;;;;;;;11.75;6.15;;;;;;;;;;4866107;29;20053;-86
2023/07/11 01:31:17;;;;;;;9.60;5.70;;;;;;;;;;4866308;29;20046;-86
2023/07/11 01:34:05;;;;;;;9.60;5.63;;;;;;;;;;4860104;29;20045;-89
2023/07/11 01:36:51;;;;;;;9.30;6.25;;;;;;;;;;4853643;29;20045;-86
2023/07/11 01:39:37;;;;;;;7.35;6.10;;;;;;;;;;4866282;29;20057;-86
2023/07/11 01:42:22;;;;;;;8.13;6.15;;;;;;;;;;4852979;29;20045;-86
2023/07/11 01:45:10;;;;;;;9.23;6.22;;;;;;;;;;4860811;29;20057;-88
2023/07/11 01:47:55;;;;;;;7.05;5.90;;;;;;;;;;4852993;29;20061;-88
2023/07/11 01:50:40;;;;;;;8.60;6.25;;;;;;;;;;4859618;29;20041;-87
2023/07/11 01:53:26;;;;;;;9.18;5.63;;;;;;;;;;4865634;29;20057;-87
2023/07/11 01:56:12;;;;;;;8.20;5.65;;;;;;;;;;4861250;29;20057;-87
2023/07/11 01:58:57;;;;;;;8.57;6.45;;;;;;;;;;4864862;29;20053;-85
2023/07/11 02:01:43;;;;;;;9.57;6.22;;;;;;;;;;4867010;29;20041;-87
2023/07/11 02:04:28;;;;;;;9.18;5.72;;;;;;;;;;4854255;29;20045;-87
2023/07/11 02:07:14;;;;;;;8.40;6.35;;;;;;;;;;4853724;29;20053;-87
2023/07/11 02:10:06;;;;;;;7.13;6.43;;;;;;;;;;4867109;29;20057;-87
2023/07/11 02:12:51;;;;;;;8.18;6.22;;;;;;;;;;4858713;29;20076;-86
2023/07/11 02:15:37;;;;;;;15.90;11.60;;;;;;;;;;4868164;29;20045;-87
2023/07/11 02:18:22;;;;;;;12.85;8.25;;;;;;;;;;4879057;29;20404;-84
2023/07/11 02:21:08;;;;;;;14.70;6.82;;;;;;;;;;4853106;29;20053;-86
2023/07/11 02:23:53;;;;;;;10.30;7.00;;;;;;;;;;4865711;29;20049;-82
2023/07/11 02:26:38;;;;;;;7.38;5.90;;;;;;;;;;4865308;29;20049;-81
2023/07/11 02:29:24;;;;;;;10.00;6.53;;;;;;;;;;4859915;29;20049;-81
2023/07/11 02:32:09;;;;;;;8.10;6.05;;;;;;;;;;4860043;29;20054;-82
2023/07/11 02:34:54;;;;;;;9.70;6.10;;;;;;;;;;4865433;29;20045;-82
2023/07/11 02:37:40;;;;;;;8.10;6.10;;;;;;;;;;4861041;29;20053;-83
2023/07/11 02:40:26;;;;;;;6.60;5.82;;;;;;;;;;4860342;29;20053;-83
2023/07/11 02:43:11;;;;;;;7.60;5.97;;;;;;;;;;4862543;29;20053;-82
2023/07/11 02:45:57;;;;;;;6.68;5.70;;;;;;;;;;4860408;29;20045;-81
2023/07/11 02:48:43;;;;;;;7.85;5.75;;;;;;;;;;4864866;29;20049;-81
2023/07/11 02:51:28;;;;;;;10.48;6.25;;;;;;;;;;4859799;29;20045;-81
2023/07/11 02:54:14;;;;;;;6.65;5.78;;;;;;;;;;4859797;29;20057;-81
2023/07/11 02:56:59;;;;;;;10.82;5.70;;;;;;;;;;4858871;29;20049;-81
2023/07/11 02:59:46;;;;;;;11.52;5.97;;;;;;;;;;4859855;29;20053;-81
2023/07/11 03:02:31;;;;;;;9.52;6.25;;;;;;;;;;4859801;29;20049;-81
2023/07/11 03:05:18;;;;;;;9.77;6.40;;;;;;;;;;4859750;29;20045;-81
2023/07/11 03:08:04;;;;;;;8.00;6.28;;;;;;;;;;4859352;29;20045;-81
2023/07/11 03:10:49;;;;;;;10.55;6.40;;;;;;;;;;4863865;29;20045;-80
2023/07/11 03:13:35;;;;;;;10.63;6.30;;;;;;;;;;4863282;29;20050;-81
2023/07/11 03:16:20;;;;;;;7.13;5.78;;;;;;;;;;4860896;29;20049;-81
2023/07/11 03:19:06;;;;;;;10.35;6.53;;;;;;;;;;4860041;29;20055;-81
2023/07/11 03:21:52;;;;;;;15.45;6.40;;;;;;;;;;4858763;29;20045;-81
2023/07/11 03:24:37;;;;;;;8.18;5.78;;;;;;;;;;4859080;29;20049;-82
2023/07/11 03:27:22;;;;;;;8.68;6.28;;;;;;;;;;4859819;29;20060;-82
2023/07/11 03:30:07;;;;;;;9.25;6.47;;;;;;;;;;4858011;29;20408;-82
2023/07/11 03:32:53;;;;;;;12.85;6.50;;;;;;;;;;4859235;29;20057;-82
2023/07/11 03:35:38;;;;;;;8.55;6.32;;;;;;;;;;4859383;29;20049;-82
2023/07/11 03:38:24;;;;;;;7.10;5.90;;;;;;;;;;4864690;29;20053;-82
2023/07/11 03:41:10;;;;;;;9.13;6.28;;;;;;;;;;4859610;29;20053;-82
2023/07/11 03:43:55;;;;;;;7.78;5.78;;;;;;;;;;4862106;29;20053;-81
2023/07/11 03:46:40;;;;;;;10.27;6.10;;;;;;;;;;4863093;29;20053;-82
2023/07/11 03:49:25;;;;;;;13.52;6.22;;;;;;;;;;4863034;29;20049;-83
2023/07/11 03:52:11;;;;;;;9.63;5.88;;;;;;;;;;4861681;29;20054;-83
2023/07/11 03:54:57;;;;;;;8.52;6.05;;;;;;;;;;4868171;29;20049;-83
2023/07/11 03:57:42;;;;;;;12.85;6.10;;;;;;;;;;4862736;29;20062;-83
2023/07/11 04:00:28;;;;;;;7.57;5.95;;;;;;;;;;4867976;29;20057;-83
2023/07/11 04:03:13;;;;;;;10.95;5.90;;;;;;;;;;4862904;29;20045;-83
2023/07/11 04:05:59;;;;;;;6.18;5.28;;;;;;;;;;4862826;29;20513;-84
2023/07/11 04:08:47;;;;;;;7.90;5.60;;;;;;;;;;4862707;29;20045;-83
2023/07/11 04:11:32;;;;;;;9.20;5.53;;;;;;;;;;4867949;29;20037;-84
2023/07/11 04:14:17;;;;;;;7.88;5.18;;;;;;;;;;4862253;29;20053;-83
2023/07/11 04:17:05;;;;;;;12.50;6.35;;;;;;;;;;4862581;29;20041;-84
2023/07/11 04:19:50;;;;;;;13.88;5.70;;;;;;;;;;4862458;29;20049;-84
2023/07/11 04:22:36;;;;;;;8.63;6.05;;;;;;;;;;4862305;29;20053;-84
2023/07/11 04:25:22;;;;;;;10.77;5.88;;;;;;;;;;4867576;29;20053;-84
2023/07/11 04:28:08;;;;;;;6.53;5.32;;;;;;;;;;4862416;29;20045;-83
2023/07/11 04:30:53;;;;;;;9.23;5.38;;;;;;;;;;4860853;29;20049;-83
2023/07/11 04:33:39;;;;;;;8.18;5.40;;;;;;;;;;4867138;29;20058;-84
2023/07/11 04:36:24;;;;;;;7.70;5.45;;;;;;;;;;4861213;29;20053;-82
2023/07/11 04:39:10;;;;;;;6.60;4.93;;;;;;;;;;4867185;29;20045;-83
2023/07/11 04:41:55;;;;;;;11.07;4.82;;;;;;;;;;4867056;29;20045;-83
2023/07/11 04:44:40;;;;;;;9.13;5.57;;;;;;;;;;4868361;29;20057;-83
2023/07/11 04:47:27;;;;;;;8.38;5.15;;;;;;;;;;4861850;29;20053;-83
2023/07/11 04:50:13;;;;;;;7.47;5.68;;;;;;;;;;4862090;29;20495;-83
2023/07/11 04:52:58;;;;;;;12.00;5.00;;;;;;;;;;4860913;29;20041;-84
2023/07/11 04:55:43;;;;;;;10.55;4.90;;;;;;;;;;4862067;29;20488;-84
2023/07/11 04:58:31;;;;;;;7.00;4.40;;;;;;;;;;4861729;29;20050;-84
2023/07/11 05:01:17;;;;;;;6.18;4.47;;;;;;;;;;4860776;29;20045;-83
2023/07/11 05:04:02;;;;;;;9.60;5.60;;;;;;;;;;4861889;29;20499;-83
2023/07/11 05:06:48;;;;;;;7.43;4.57;;;;;;;;;;4861671;29;20057;-83
2023/07/11 05:09:33;;;;;;;23.98;5.53;;;;;;;;;;4860589;29;20049;-84
2023/07/11 05:12:19;;;;;;;7.88;4.93;;;;;;;;;;4860893;29;20045;-83
2023/07/11 05:15:05;;;;;;;8.10;4.90;;;;;;;;;;4861498;29;20057;-83
2023/07/11 05:17:50;;;;;;;9.98;5.18;;;;;;;;;;4860327;29;20041;-84
2023/07/11 05:20:36;;;;;;;9.50;4.80;;;;;;;;;;4861322;29;20053;-83
2023/07/11 05:23:27;;;;;;;10.80;4.78;;;;;;;;;;4878591;29;20057;-83
2023/07/11 05:26:12;;;;;;;13.98;5.10;;;;;;;;;;4870944;29;20045;-84
2023/07/11 05:28:57;;;;;;;5.63;4.60;;;;;;;;;;4861332;29;20053;-84
2023/07/11 05:31:43;;;;;;;18.42;5.35;;;;;;;;;;4861664;29;20053;-84
2023/07/11 05:34:28;;;;;;;6.63;4.45;;;;;;;;;;4861615;29;20045;-84
2023/07/11 05:37:13;;;;;;;7.28;4.30;;;;;;;;;;4861010;29;20053;-83
2023/07/11 05:39:59;;;;;;;9.85;4.68;;;;;;;;;;4861111;29;20049;-83
2023/07/11 05:42:45;;;;;;;9.18;4.50;;;;;;;;;;4860891;29;20484;-83
2023/07/11 05:45:30;;;;;;;9.52;4.60;;;;;;;;;;4860865;29;20052;-84
2023/07/11 05:48:17;;;;;;;7.45;4.22;;;;;;;;;;4860775;29;20057;-83
2023/07/11 05:51:07;;;;;;;10.45;4.78;;;;;;;;;;4861019;29;20049;-84
2023/07/11 05:53:52;;;;;;;9.55;4.32;;;;;;;;;;4861599;29;20061;-84
2023/07/11 05:56:37;;;;;;;14.45;5.53;;;;;;;;;;4866317;29;20042;-83
2023/07/11 05:59:23;;;;;;;9.35;4.82;;;;;;;;;;4866628;29;20053;-82
2023/07/11 06:02:08;;;;;;;12.25;4.93;;;;;;;;;;4866116;29;20046;-82
2023/07/11 06:04:54;;;;;;;8.48;4.70;;;;;;;;;;4866595;29;20061;-83
2023/07/11 06:07:39;;;;;;;8.60;4.95;;;;;;;;;;4860362;29;20053;-84
2023/07/11 06:10:26;;;;;;;6.75;4.35;;;;;;;;;;4859999;29;20499;-83
2023/07/11 06:13:13;;;;;;;8.55;4.85;;;;;;;;;;4859172;29;20407;-83
2023/07/11 06:16:10;;;;;;;8.68;4.50;;;;;;;;;;4860898;29;20050;-84
2023/07/11 06:18:56;;;;;;;8.55;4.57;;;;;;;;;;4865707;29;20053;-83
2023/07/11 06:21:42;;;;;;;5.82;3.85;;;;;;;;;;4860817;29;20045;-84
2023/07/11 06:24:28;;;;;;;7.05;4.05;;;;;;;;;;4865711;29;20057;-83
2023/07/11 06:27:13;;;;;;;6.00;4.30;;;;;;;;;;4859928;29;20420;-85
2023/07/11 06:29:59;;;;;;;8.75;4.85;;;;;;;;;;4860426;29;20053;-85
2023/07/11 06:32:45;;;;;;;7.78;4.60;;;;;;;;;;4853408;29;20061;-84
2023/07/11 06:35:30;;;;;;;7.50;4.70;;;;;;;;;;4860775;29;20041;-84
2023/07/11 06:38:19;;;;;;;6.97;4.72;;;;;;;;;;4859532;29;20049;-85
2023/07/11 06:41:05;;;;;;;10.02;5.00;;;;;;;;;;4860474;29;20487;-84
2023/07/11 06:43:52;;;;;;;9.27;4.30;;;;;;;;;;4859351;29;20049;-85
2023/07/11 06:46:38;;;;;;;7.13;4.28;;;;;;;;;;4860886;29;20042;-87
2023/07/11 06:49:23;;;;;;;9.00;4.22;;;;;;;;;;4860742;29;20057;-84
2023/07/11 06:52:09;;;;;;;10.38;4.25;;;;;;;;;;4858945;29;20049;-85
2023/07/11 06:54:55;;;;;;;7.53;3.85;;;;;;;;;;4865721;29;20483;-86
2023/07/11 06:57:40;;;;;;;6.72;3.78;;;;;;;;;;4851996;29;20045;-80
2023/07/11 07:00:26;;;;;;;9.43;4.30;;;;;;;;;;4858622;29;20544;-76
2023/07/11 07:03:13;;;;;;;7.93;4.50;;;;;;;;;;4859511;29;20038;-76
2023/07/11 07:06:10;;;;;;;12.45;5.00;;;;;;;;;;4865715;29;20049;-74
2023/07/11 07:08:56;;;;;;;12.60;4.82;;;;;;;;;;4865754;29;20057;-74
2023/07/11 07:11:41;;;;;;;7.30;4.60;;;;;;;;;;4864440;29;20053;-75
2023/07/11 07:14:27;;;;;;;7.05;4.40;;;;;;;;;;4858902;29;20050;-73
2023/07/11 07:17:12;;;;;;;8.68;4.13;;;;;;;;;;4859068;29;20049;-76
2023/07/11 07:19:58;;;;;;;9.05;4.50;;;;;;;;;;4865612;29;20045;-74
2023/07/11 07:22:43;;;;;;;8.65;4.20;;;;;;;;;;4859517;29;20042;-76
2023/07/11 07:25:29;;;;;;;6.03;4.43;;;;;;;;;;4859381;29;20053;-77
2023/07/11 07:28:15;;;;;;;6.00;4.38;;;;;;;;;;4865490;29;20053;-77
2023/07/11 07:31:03;;;;;;;6.15;3.80;;;;;;;;;;4859173;29;20496;-76
2023/07/11 07:33:49;;;;;;;7.45;4.15;;;;;;;;;;4859565;29;20049;-75
2023/07/11 07:36:34;;;;;;;7.80;4.18;;;;;;;;;;4859452;29;20042;-78
2023/07/11 07:39:20;;;;;;;8.77;3.80;;;;;;;;;;4865665;29;20053;-77
2023/07/11 07:42:06;;;;;;;7.57;4.63;;;;;;;;;;4859412;29;20042;-76
2023/07/11 07:44:51;;;;;;;6.60;4.53;;;;;;;;;;4865555;29;20049;-77
2023/07/11 07:47:37;;;;;;;4.47;3.90;;;;;;;;;;4865422;29;20412;-76
2023/07/11 07:50:22;;;;;;;6.00;4.47;;;;;;;;;;4859236;29;20053;-74
2023/07/11 07:53:08;;;;;;;9.55;4.78;;;;;;;;;;4858757;29;20049;-75
2023/07/11 07:55:53;;;;;;;7.38;4.38;;;;;;;;;;4858849;29;20407;-74
2023/07/11 07:58:39;;;;;;;8.13;4.38;;;;;;;;;;4857952;29;20492;-74
2023/07/11 08:01:24;;;;;;;8.52;4.07;;;;;;;;;;4866720;29;20045;-73
2023/07/11 08:04:10;;;;;;;8.13;4.53;;;;;;;;;;4860762;29;20053;-73
2023/07/11 08:06:56;;;;;;;11.25;5.35;;;;;;;;;;4867018;29;20049;-77
2023/07/11 08:09:42;;;;;;;10.48;4.90;;;;;;;;;;4866932;29;20046;-77
2023/07/11 08:12:27;;;;;;;6.80;4.35;;;;;;;;;;4860631;29;20053;-77
2023/07/11 08:15:13;;;;;;;10.80;4.80;;;;;;;;;;4860722;29;20049;-76
2023/07/11 08:17:58;;;;;;;7.38;4.60;;;;;;;;;;4860583;29;20050;-76
2023/07/11 08:20:44;;;;;;;8.05;4.55;;;;;;;;;;4867242;29;20045;-76
2023/07/11 08:23:29;;;;;;;6.72;4.78;;;;;;;;;;4860400;29;20042;-75
2023/07/11 08:26:14;;;;;;;9.20;4.63;;;;;;;;;;4860752;29;20049;-76
2023/07/11 08:29:00;;;;;;;8.88;3.92;;;;;;;;;;4867373;29;20046;-75
2023/07/11 08:31:45;;;;;;;6.50;4.38;;;;;;;;;;4870155;29;20045;-78
2023/07/11 08:34:31;;;;;;;5.45;4.20;;;;;;;;;;4869219;29;20050;-77
2023/07/11 08:37:19;;;;;;;7.25;4.15;;;;;;;;;;4870211;29;20431;-75
2023/07/11 08:40:06;;;;;;;9.32;4.38;;;;;;;;;;4863976;29;20054;-76
2023/07/11 08:42:52;;;;;;;8.60;5.05;;;;;;;;;;4869931;29;20041;-76
2023/07/11 08:45:56;;;;;;;7.68;4.72;;;;;;;;;;4863641;29;20061;-76
2023/07/11 08:48:49;;;;;;;10.57;4.32;;;;;;;;;;4869820;29;20053;-75
2023/07/11 08:51:39;;;;;;;6.82;4.50;;;;;;;;;;4863942;29;20045;-78
2023/07/11 08:54:36;;;;;;;7.13;4.78;;;;;;;;;;4869734;29;20057;-73
2023/07/11 08:57:23;;;;;;;7.88;4.82;;;;;;;;;;4863733;29;20053;-75
2023/07/11 09:00:19;;;;;;;8.95;4.43;;;;;;;;;;4869802;29;20049;-73
2023/07/11 09:03:09;;;;;;;8.88;4.88;;;;;;;;;;4863417;29;20050;-74
2023/07/11 09:06:07;;;;;;;10.27;5.10;;;;;;;;;;4863163;29;20041;-78
2023/07/11 09:08:54;;;;;;;10.82;4.63;;;;;;;;;;4850075;29;20045;-78
2023/07/11 09:11:49;;;;;;;6.93;4.60;;;;;;;;;;4870098;29;20046;-78
2023/07/11 09:14:55;;;;;;;8.88;4.53;;;;;;;;;;4863300;29;20053;-75
2023/07/11 09:17:48;;;;;;;12.00;4.90;;;;;;;;;;4869461;29;20046;-77
2023/07/11 09:20:47;;;;;;;6.90;4.60;;;;;;;;;;4869332;29;20485;-77
2023/07/11 09:23:46;;;;;;;11.60;4.68;;;;;;;;;;4869552;29;20488;-81
2023/07/11 09:26:38;;;;;;;8.85;4.82;;;;;;;;;;4863081;29;20392;-75
2023/07/11 09:29:24;;;;;;;6.32;4.30;;;;;;;;;;4862877;29;20061;-76
2023/07/11 09:32:11;;;;;;;10.27;4.07;;;;;;;;;;4868966;29;20408;-77
2023/07/11 09:34:57;;;;;;;8.52;4.65;;;;;;;;;;4869222;29;20050;-74
2023/07/11 09:37:48;;;;;;;8.35;4.43;;;;;;;;;;4862844;29;20404;-77
2023/07/11 09:40:38;;;;;;;7.43;4.50;;;;;;;;;;4862602;29;20041;-75
2023/07/11 09:43:23;;;;;;;8.75;4.90;;;;;;;;;;4868947;29;20057;-75
2023/07/11 09:46:13;;;;;;;14.63;5.55;;;;;;;;;;4869040;29;20145;-79
2023/07/11 09:49:01;;;;;;;8.13;4.35;;;;;;;;;;4863163;29;20076;-74
2023/07/11 09:51:58;;;;;;;8.27;4.60;;;;;;;;;;4862762;29;20046;-75
2023/07/11 09:54:46;;;;;;;8.82;4.68;;;;;;;;;;4869126;29;20065;-75
2023/07/11 09:57:31;;;;;;;8.18;4.70;;;;;;;;;;4868931;29;20049;-75
2023/07/11 10:00:18;;;;;;;6.70;4.35;;;;;;;;;;4862741;29;20049;-74
2023/07/11 10:03:03;;;;;;;11.55;5.00;;;;;;;;;;4868665;29;20045;-76
2023/07/11 10:05:51;;;;;;;10.50;4.88;;;;;;;;;;4867514;29;20046;-76
2023/07/11 10:08:43;;;;;;;8.15;4.32;;;;;;;;;;4868328;29;20045;-75
2023/07/11 10:11:29;;;;;;;9.52;4.85;;;;;;;;;;4861473;29;20049;-75
2023/07/11 10:14:19;;;;;;;8.18;4.80;;;;;;;;;;4866711;29;20046;-75
2023/07/11 10:17:17;;;;;;;9.70;4.57;;;;;;;;;;4866733;29;20049;-76
2023/07/11 10:20:06;;;;;;;9.05;4.15;;;;;;;;;;4866492;29;20046;-75
2023/07/11 10:23:00;;;;;;;8.57;4.32;;;;;;;;;;4860388;29;20049;-76
2023/07/11 10:25:46;;;;;;;11.18;4.38;;;;;;;;;;4866696;29;20041;-76
2023/07/11 10:28:34;;;;;;;10.18;4.47;;;;;;;;;;4860704;29;20061;-77
2023/07/11 10:31:27;;;;;;;13.20;4.75;;;;;;;;;;4866774;29;20057;-78
2023/07/11 10:34:46;;;;;;;8.43;4.30;;;;;;;;;;4861135;29;20051;-75
2023/07/11 10:37:41;;;;;;;7.88;4.68;;;;;;;;;;4866245;29;20054;-74
2023/07/11 10:40:29;;;;;;;6.93;4.55;;;;;;;;;;4866173;29;20049;-74
2023/07/11 10:43:28;;;;;;;13.05;4.53;;;;;;;;;;4866126;29;20515;-74
2023/07/11 10:46:24;;;;;;;6.97;4.70;;;;;;;;;;4859802;29;20049;-74
2023/07/11 10:49:16;;;;;;;8.35;4.40;;;;;;;;;;4866036;29;20041;-74
2023/07/11 10:52:10;;;;;;;8.25;4.72;;;;;;;;;;4859316;29;20399;-75
2023/07/11 10:55:05;;;;;;;9.60;4.45;;;;;;;;;;4861061;29;20045;-74
2023/07/11 10:57:53;;;;;;;6.45;4.47;;;;;;;;;;4865917;29;20057;-75
2023/07/11 11:01:12;;;;;;;8.50;4.18;;;;;;;;;;4859848;29;20053;-77
2023/07/11 11:04:06;;;;;;;6.85;4.68;;;;;;;;;;4859636;29;20045;-75
2023/07/11 11:07:10;;;;;;;8.23;4.57;;;;;;;;;;4859796;29;20041;-77
2023/07/11 11:10:12;;;;;;;9.02;4.53;;;;;;;;;;4859639;29;20049;-77
2023/07/11 11:13:26;;;;;;;8.07;4.15;;;;;;;;;;4859462;29;20042;-76
2023/07/11 11:16:29;;;;;;;7.40;4.25;;;;;;;;;;4859889;29;20500;-77
2023/07/11 11:19:30;;;;;;;7.70;5.00;;;;;;;;;;4860426;29;20049;-78
2023/07/11 11:22:22;;;;;;;7.43;4.65;;;;;;;;;;4860142;29;20049;-77
2023/07/11 11:25:25;;;;;;;7.60;4.80;;;;;;;;;;4859593;29;20053;-77
2023/07/11 11:28:21;;;;;;;6.90;4.57;;;;;;;;;;4865723;29;20045;-77
2023/07/11 11:31:26;;;;;;;7.05;4.38;;;;;;;;;;4859472;29;20496;-77
2023/07/11 11:34:32;;;;;;;6.57;4.80;;;;;;;;;;4859058;29;20050;-77
2023/07/11 11:37:50;;;;;;;5.35;4.03;;;;;;;;;;4865648;29;20049;-75
2023/07/11 11:40:43;;;;;;;9.10;4.50;;;;;;;;;;4843136;29;20053;-75
2023/07/11 11:43:29;;;;;;;6.97;4.30;;;;;;;;;;4865549;29;20045;-75
2023/07/11 11:46:15;;;;;;;8.63;4.90;;;;;;;;;;4865428;29;20057;-76
2023/07/11 11:49:03;;;;;;;9.50;5.00;;;;;;;;;;4859327;29;20053;-76
2023/07/11 11:51:48;;;;;;;7.47;4.40;;;;;;;;;;4859392;29;20054;-75
2023/07/11 11:54:43;;;;;;;5.97;4.22;;;;;;;;;;4859287;29;20049;-75
2023/07/11 11:57:31;;;;;;;10.20;4.63;;;;;;;;;;4859173;29;20049;-74
2023/07/11 12:00:36;;;;;;;8.55;4.70;;;;;;;;;;4865045;29;20041;-76
2023/07/11 12:03:29;;;;;;;6.65;4.25;;;;;;;;;;4861004;29;20045;-75
2023/07/11 12:06:36;;;;;;;6.05;4.40;;;;;;;;;;4869157;29;20503;-75
2023/07/11 12:09:46;;;;;;;7.35;4.60;;;;;;;;;;4862777;29;20057;-76
2023/07/11 12:12:32;;;;;;;9.15;4.60;;;;;;;;;;4862130;29;20042;-76
2023/07/11 12:15:21;;;;;;;12.57;5.00;;;;;;;;;;4867463;29;20053;-74
2023/07/11 12:18:34;;;;;;;8.80;5.03;;;;;;;;;;4862648;29;20049;-75
2023/07/11 12:21:41;;;;;;;6.40;4.25;;;;;;;;;;4868526;29;20057;-74
2023/07/11 12:24:33;;;;;;;6.35;4.20;;;;;;;;;;4861302;29;20045;-75
2023/07/11 12:27:19;;;;;;;5.18;4.20;;;;;;;;;;4868909;29;20523;-76
2023/07/11 12:30:14;;;;;;;6.40;4.43;;;;;;;;;;4862219;29;20053;-76
2023/07/11 12:33:31;;;;;;;6.97;5.13;;;;;;;;;;4862043;29;20404;-76
2023/07/11 12:37:00;;;;;;;9.68;4.90;;;;;;;;;;4855354;29;20045;-75
2023/07/11 12:39:54;;;;;;;7.20;4.22;;;;;;;;;;4863077;29;20053;-75
2023/07/11 12:42:55;;;;;;;7.95;4.45;;;;;;;;;;4869985;29;20037;-75
2023/07/11 12:45:44;;;;;;;7.18;4.55;;;;;;;;;;4869861;29;20049;-75
2023/07/11 12:48:32;;;;;;;11.50;4.60;;;;;;;;;;4863630;29;20053;-75
2023/07/11 12:51:33;;;;;;;7.97;4.00;;;;;;;;;;4863969;29;20173;-75
2023/07/11 12:54:21;;;;;;;8.07;4.32;;;;;;;;;;4863498;29;20049;-75
2023/07/11 12:57:13;;;;;;;5.88;4.43;;;;;;;;;;4863446;29;20061;-75
2023/07/11 12:59:59;;;;;;;6.85;3.88;;;;;;;;;;4869452;29;20054;-77
2023/07/11 13:02:45;;;;;;;5.97;3.95;;;;;;;;;;4863363;29;20046;-75
2023/07/11 13:05:31;;;;;;;12.05;4.85;;;;;;;;;;4863596;29;20041;-75
2023/07/11 13:08:17;;;;;;;7.38;4.68;;;;;;;;;;4862744;29;20058;-76
2023/07/11 13:11:04;;;;;;;6.80;4.60;;;;;;;;;;4861403;29;20480;-75
2023/07/11 13:13:52;;;;;;;7.40;4.40;;;;;;;;;;4866648;29;20396;-75
2023/07/11 13:16:40;;;;;;;6.28;4.25;;;;;;;;;;4867559;29;20492;-75
2023/07/11 13:19:26;;;;;;;7.93;4.45;;;;;;;;;;4861534;29;20049;-74
2023/07/11 13:22:16;;;;;;;6.32;4.38;;;;;;;;;;4861448;29;20484;-75
2023/07/11 13:25:02;;;;;;;7.55;3.97;;;;;;;;;;4860927;29;20034;-75
2023/07/11 13:27:48;;;;;;;6.28;4.15;;;;;;;;;;4867606;29;20053;-74
2023/07/11 13:30:36;;;;;;;7.70;4.35;;;;;;;;;;4862609;29;20053;-74
2023/07/11 13:33:28;;;;;;;8.52;4.40;;;;;;;;;;4861172;29;20045;-74
2023/07/11 13:36:16;;;;;;;7.85;4.50;;;;;;;;;;4867237;29;20078;-74
2023/07/11 13:39:05;;;;;;;6.28;3.80;;;;;;;;;;4860839;29;20049;-76
2023/07/11 13:41:56;;;;;;;7.15;3.85;;;;;;;;;;4867249;29;20057;-74
2023/07/11 13:44:50;;;;;;;7.57;4.63;;;;;;;;;;4867082;29;20038;-74
2023/07/11 13:47:43;;;;;;;8.50;4.65;;;;;;;;;;4866895;29;20480;-75
2023/07/11 13:50:30;;;;;;;9.07;4.25;;;;;;;;;;4866848;29;20045;-74
2023/07/11 13:53:19;;;;;;;6.10;4.03;;;;;;;;;;4860655;29;20631;-75
2023/07/11 13:56:04;;;;;;;5.25;3.83;;;;;;;;;;4866890;29;20045;-76
2023/07/11 13:58:53;;;;;;;7.95;3.95;;;;;;;;;;4860649;29;20431;-77
2023/07/11 14:01:38;;;;;;;7.80;4.30;;;;;;;;;;4860658;29;20049;-73
2023/07/11 14:04:30;;;;;;;5.78;4.18;;;;;;;;;;4866807;29;20049;-73
2023/07/11 14:07:16;;;;;;;5.70;3.88;;;;;;;;;;4860578;29;20045;-75
2023/07/11 14:10:01;;;;;;;4.88;3.50;;;;;;;;;;4866608;29;20045;-76
2023/07/11 14:12:47;;;;;;;13.43;4.03;;;;;;;;;;4860338;29;20037;-78
2023/07/11 14:15:33;;;;;;;5.43;3.72;;;;;;;;;;4860245;29;20053;-76
2023/07/11 14:18:18;;;;;;;6.35;3.92;;;;;;;;;;4866496;29;20397;-75
2023/07/11 14:21:04;;;;;;;9.27;3.58;;;;;;;;;;4859836;29;20054;-74
2023/07/11 14:23:49;;;;;;;9.05;3.47;;;;;;;;;;4860157;29;20038;-75
2023/07/11 14:26:34;;;;;;;7.25;3.78;;;;;;;;;;4865088;29;20050;-75
2023/07/11 14:29:28;;;;;;;9.13;3.88;;;;;;;;;;4859992;29;20491;-75
2023/07/11 14:32:16;;;;;;;6.10;3.85;;;;;;;;;;4866294;29;20049;-74
2023/07/11 14:35:01;;;;;;;6.90;3.60;;;;;;;;;;4861243;29;20053;-75
2023/07/11 14:37:47;;;;;;;7.80;4.38;;;;;;;;;;4861228;29;20049;-76
2023/07/11 14:40:32;;;;;;;9.25;4.13;;;;;;;;;;4860315;29;20045;-76
2023/07/11 14:43:21;;;;;;;9.30;4.00;;;;;;;;;;4860007;29;20053;-74
2023/07/11 14:46:07;;;;;;;5.63;3.80;;;;;;;;;;4866204;29;20053;-76
2023/07/11 14:48:53;;;;;;;10.52;4.20;;;;;;;;;;4860421;29;20415;-76
2023/07/11 14:51:39;;;;;;;8.43;4.00;;;;;;;;;;4861149;29;20053;-77
2023/07/11 14:54:29;;;;;;;6.25;3.75;;;;;;;;;;4867554;29;20045;-76
2023/07/11 14:57:14;;;;;;;4.40;3.70;;;;;;;;;;4867739;29;20049;-76
2023/07/11 15:00:00;;;;;;;5.68;4.07;;;;;;;;;;4861559;29;20049;-77
2023/07/11 15:02:47;;;;;;;7.15;3.88;;;;;;;;;;4867666;29;20045;-76
2023/07/11 15:05:32;;;;;;;5.10;3.65;;;;;;;;;;4860245;29;20049;-76
2023/07/11 15:08:22;;;;;;;6.80;3.75;;;;;;;;;;4867425;29;20053;-75
2023/07/11 15:11:22;;;;;;;6.28;3.80;;;;;;;;;;4867676;29;20054;-76
2023/07/11 15:14:26;;;;;;;8.50;4.35;;;;;;;;;;4860999;29;20045;-76
2023/07/11 15:17:23;;;;;;;8.40;4.40;;;;;;;;;;4861099;29;20053;-76
2023/07/11 15:20:11;;;;;;;5.68;3.97;;;;;;;;;;4861641;29;20045;-76
2023/07/11 15:22:58;;;;;;;5.65;3.90;;;;;;;;;;4861212;29;20045;-76
2023/07/11 15:25:46;;;;;;;7.63;4.20;;;;;;;;;;4860292;29;20053;-72
2023/07/11 15:28:32;;;;;;;6.10;3.80;;;;;;;;;;4867095;29;20045;-74
2023/07/11 15:31:20;;;;;;;5.95;4.07;;;;;;;;;;4867272;29;20045;-73
2023/07/11 15:34:25;;;;;;;8.20;4.28;;;;;;;;;;4861103;29;20053;-74
2023/07/11 15:37:10;;;;;;;7.15;4.47;;;;;;;;;;4860930;29;20041;-72
2023/07/11 15:39:56;;;;;;;8.27;4.28;;;;;;;;;;4865093;29;20480;-72
2023/07/11 15:42:41;;;;;;;8.15;4.28;;;;;;;;;;4864682;29;20041;-72
2023/07/11 15:45:30;;;;;;;10.63;4.40;;;;;;;;;;4864733;29;20046;-72
2023/07/11 15:48:14;;;;;;;11.23;4.60;;;;;;;;;;4864854;29;20045;-72
2023/07/11 15:51:00;;;;;;;6.95;4.18;;;;;;;;;;4864850;29;20057;-73
2023/07/11 15:53:46;;;;;;;5.72;3.60;;;;;;;;;;4870460;29;20042;-73
2023/07/11 15:56:31;;;;;;;8.88;4.20;;;;;;;;;;4864595;29;20054;-72
2023/07/11 15:59:19;;;;;;;6.72;4.20;;;;;;;;;;4870577;29;20045;-71
2023/07/11 16:02:17;;;;;;;6.65;4.22;;;;;;;;;;4864784;29;20468;-73
2023/07/11 16:05:02;;;;;;;8.73;4.18;;;;;;;;;;4870637;29;20037;-74
2023/07/11 16:07:49;;;;;;;7.15;3.78;;;;;;;;;;4864370;29;20395;-75
2023/07/11 16:10:37;;;;;;;6.15;4.07;;;;;;;;;;4870210;29;20045;-75
2023/07/11 16:13:28;;;;;;;11.63;4.03;;;;;;;;;;4870195;29;20041;-75
2023/07/11 16:16:16;;;;;;;6.30;4.00;;;;;;;;;;4863956;29;20041;-74
2023/07/11 16:19:01;;;;;;;9.07;4.50;;;;;;;;;;4870025;29;20487;-74
2023/07/11 16:21:47;;;;;;;10.35;4.53;;;;;;;;;;4870391;29;20045;-73
2023/07/11 16:24:32;;;;;;;6.78;3.97;;;;;;;;;;4864071;29;20396;-74
2023/07/11 16:27:19;;;;;;;7.40;4.22;;;;;;;;;;4870112;29;20041;-74
2023/07/11 16:30:21;;;;;;;7.07;4.20;;;;;;;;;;4863418;29;20065;-74
2023/07/11 16:33:18;;;;;;;8.55;4.00;;;;;;;;;;4863808;29;20392;-73
2023/07/11 16:36:04;;;;;;;8.50;4.20;;;;;;;;;;4864175;29;20049;-74
2023/07/11 16:38:50;;;;;;;6.38;4.00;;;;;;;;;;4870270;29;20049;-73
2023/07/11 16:41:36;;;;;;;6.40;4.00;;;;;;;;;;4869935;29;20045;-72
2023/07/11 16:44:22;;;;;;;7.15;4.25;;;;;;;;;;4869778;29;20038;-73
2023/07/11 16:47:10;;;;;;;8.35;4.30;;;;;;;;;;4870041;29;20049;-72
2023/07/11 16:49:55;;;;;;;7.20;4.07;;;;;;;;;;4862514;29;20053;-74